Bellefonte, Kentucky
Current Conditions -  °F | °C
As of 2:55 AM on Wednesday 26 Nov 2014 (Local Time) from KDWU Reporting Station
Clear Clear  
Wind Chill: 36°   Ceiling: Unl
Heat Index: 36°   Visibility: 10mi
Dew Point: 27°   Wind: 3mph
Humidity: 70%   Direction: 340°NNW
Pressure: 30.07"   Gusts: NA
Location:  38.4744°N, 82.6532°W
Report Text: KDWU 260755Z AUTO 34003KT 10SM CLR 02/M03 A3007 RMK AO1
Loading
Personal Weather Stations






























Interactive Weather Map New forecast layout! Learn more

10-Day Weather Forecast

Advertisements
Track Severe Weather on mobile